sensor_id;sensor_type;location;lat;lon;timestamp;temperature;humidity
23156;DHT22;11746;50.876;4.246;2023-07-28T00:02:13;17.90;99.90
23156;DHT22;11746;50.876;4.246;2023-07-28T00:04:39;17.90;99.90
23156;DHT22;11746;50.876;4.246;2023-07-28T00:07:05;17.90;99.90
23156;DHT22;11746;50.876;4.246;2023-07-28T00:09:31;17.90;99.90
23156;DHT22;11746;50.876;4.246;2023-07-28T00:11:58;17.90;99.90
23156;DHT22;11746;50.876;4.246;2023-07-28T00:14:25;17.90;99.90
23156;DHT22;11746;50.876;4.246;2023-07-28T00:16:52;17.90;99.90
23156;DHT22;11746;50.876;4.246;2023-07-28T00:19:20;17.90;99.90
23156;DHT22;11746;50.876;4.246;2023-07-28T00:21:50;18.00;99.90
23156;DHT22;11746;50.876;4.246;2023-07-28T00:24:17;17.90;99.90
23156;DHT22;11746;50.876;4.246;2023-07-28T00:26:43;17.90;99.90
23156;DHT22;11746;50.876;4.246;2023-07-28T00:29:09;18.00;99.90
23156;DHT22;11746;50.876;4.246;2023-07-28T00:31:35;18.10;99.90
23156;DHT22;11746;50.876;4.246;2023-07-28T00:34:02;18.10;99.90
23156;DHT22;11746;50.876;4.246;2023-07-28T00:36:29;18.20;99.90
23156;DHT22;11746;50.876;4.246;2023-07-28T00:38:55;18.10;99.90
23156;DHT22;11746;50.876;4.246;2023-07-28T00:41:20;18.10;99.90
23156;DHT22;11746;50.876;4.246;2023-07-28T00:43:46;18.10;99.90
23156;DHT22;11746;50.876;4.246;2023-07-28T00:46:13;18.10;99.90
23156;DHT22;11746;50.876;4.246;2023-07-28T00:48:40;18.00;99.90
23156;DHT22;11746;50.876;4.246;2023-07-28T00:51:07;18.00;99.90
23156;DHT22;11746;50.876;4.246;2023-07-28T00:53:33;18.00;99.90
23156;DHT22;11746;50.876;4.246;2023-07-28T00:56:02;18.10;99.90
23156;DHT22;11746;50.876;4.246;2023-07-28T00:58:30;18.10;99.90
23156;DHT22;11746;50.876;4.246;2023-07-28T01:00:56;18.00;99.90
23156;DHT22;11746;50.876;4.246;2023-07-28T01:03:22;18.00;99.90
23156;DHT22;11746;50.876;4.246;2023-07-28T01:11:58;18.00;99.90
23156;DHT22;11746;50.876;4.246;2023-07-28T01:14:25;18.00;99.90
23156;DHT22;11746;50.876;4.246;2023-07-28T01:16:51;18.10;99.90
23156;DHT22;11746;50.876;4.246;2023-07-28T01:19:19;18.10;99.90
23156;DHT22;11746;50.876;4.246;2023-07-28T01:21:57;18.20;99.90
23156;DHT22;11746;50.876;4.246;2023-07-28T01:25:32;18.10;99.90
23156;DHT22;11746;50.876;4.246;2023-07-28T01:27:27;18.10;99.90
23156;DHT22;11746;50.876;4.246;2023-07-28T01:29:54;18.00;99.90
23156;DHT22;11746;50.876;4.246;2023-07-28T01:32:20;18.00;99.90
23156;DHT22;11746;50.876;4.246;2023-07-28T01:34:46;18.00;99.90
23156;DHT22;11746;50.876;4.246;2023-07-28T01:37:11;18.00;99.90
23156;DHT22;11746;50.876;4.246;2023-07-28T01:39:37;17.90;99.90
23156;DHT22;11746;50.876;4.246;2023-07-28T01:42:03;18.00;99.90
23156;DHT22;11746;50.876;4.246;2023-07-28T01:44:29;18.00;99.90
23156;DHT22;11746;50.876;4.246;2023-07-28T01:46:55;18.10;99.90
23156;DHT22;11746;50.876;4.246;2023-07-28T01:49:21;18.00;99.90
23156;DHT22;11746;50.876;4.246;2023-07-28T01:51:47;18.10;99.90
23156;DHT22;11746;50.876;4.246;2023-07-28T01:54:13;18.00;99.90
23156;DHT22;11746;50.876;4.246;2023-07-28T01:56:39;18.00;99.90
23156;DHT22;11746;50.876;4.246;2023-07-28T01:59:04;18.10;99.90
23156;DHT22;11746;50.876;4.246;2023-07-28T02:01:30;18.10;99.90
23156;DHT22;11746;50.876;4.246;2023-07-28T02:03:56;18.00;99.90
23156;DHT22;11746;50.876;4.246;2023-07-28T02:06:23;18.00;99.90
23156;DHT22;11746;50.876;4.246;2023-07-28T02:08:48;18.10;99.90
23156;DHT22;11746;50.876;4.246;2023-07-28T02:11:14;18.10;99.90
23156;DHT22;11746;50.876;4.246;2023-07-28T02:13:40;18.20;99.90
23156;DHT22;11746;50.876;4.246;2023-07-28T02:16:06;18.20;99.90
23156;DHT22;11746;50.876;4.246;2023-07-28T02:18:32;18.00;99.90
23156;DHT22;11746;50.876;4.246;2023-07-28T02:20:58;18.10;99.90
23156;DHT22;11746;50.876;4.246;2023-07-28T02:23:24;18.10;99.90
23156;DHT22;11746;50.876;4.246;2023-07-28T02:25:50;18.10;99.90
23156;DHT22;11746;50.876;4.246;2023-07-28T02:28:16;18.00;99.90
23156;DHT22;11746;50.876;4.246;2023-07-28T02:30:42;18.00;99.90
23156;DHT22;11746;50.876;4.246;2023-07-28T02:33:08;18.00;99.90
23156;DHT22;11746;50.876;4.246;2023-07-28T02:35:34;18.00;99.90
23156;DHT22;11746;50.876;4.246;2023-07-28T02:38:00;18.00;99.90
23156;DHT22;11746;50.876;4.246;2023-07-28T02:40:26;18.00;99.90
23156;DHT22;11746;50.876;4.246;2023-07-28T02:42:52;18.00;99.90
23156;DHT22;11746;50.876;4.246;2023-07-28T02:45:18;18.10;99.90
23156;DHT22;11746;50.876;4.246;2023-07-28T02:47:45;18.10;99.90
23156;DHT22;11746;50.876;4.246;2023-07-28T02:50:11;18.00;99.90
23156;DHT22;11746;50.876;4.246;2023-07-28T02:52:37;18.00;99.90
23156;DHT22;11746;50.876;4.246;2023-07-28T02:55:03;18.00;99.90
23156;DHT22;11746;50.876;4.246;2023-07-28T02:57:28;18.00;99.90
23156;DHT22;11746;50.876;4.246;2023-07-28T02:59:54;18.00;99.90
23156;DHT22;11746;50.876;4.246;2023-07-28T03:02:20;18.00;99.90
23156;DHT22;11746;50.876;4.246;2023-07-28T03:04:46;18.00;99.90
23156;DHT22;11746;50.876;4.246;2023-07-28T03:07:12;18.10;99.90
23156;DHT22;11746;50.876;4.246;2023-07-28T03:09:38;18.20;99.90
23156;DHT22;11746;50.876;4.246;2023-07-28T03:12:04;18.10;99.90
23156;DHT22;11746;50.876;4.246;2023-07-28T03:14:31;18.10;99.90
23156;DHT22;11746;50.876;4.246;2023-07-28T03:16:57;18.10;99.90
23156;DHT22;11746;50.876;4.246;2023-07-28T03:19:23;18.20;99.90
23156;DHT22;11746;50.876;4.246;2023-07-28T03:21:49;18.10;99.90
23156;DHT22;11746;50.876;4.246;2023-07-28T03:24:15;18.00;99.90
23156;DHT22;11746;50.876;4.246;2023-07-28T03:26:41;18.00;99.90
23156;DHT22;11746;50.876;4.246;2023-07-28T03:29:07;18.00;99.90
23156;DHT22;11746;50.876;4.246;2023-07-28T03:31:33;18.00;99.90
23156;DHT22;11746;50.876;4.246;2023-07-28T03:34:02;18.00;99.90
23156;DHT22;11746;50.876;4.246;2023-07-28T03:36:28;18.00;99.90
23156;DHT22;11746;50.876;4.246;2023-07-28T03:38:53;18.00;99.90
23156;DHT22;11746;50.876;4.246;2023-07-28T03:41:20;18.00;99.90
23156;DHT22;11746;50.876;4.246;2023-07-28T03:43:46;18.00;99.90
23156;DHT22;11746;50.876;4.246;2023-07-28T03:46:12;18.00;99.90
23156;DHT22;11746;50.876;4.246;2023-07-28T03:48:38;18.10;99.90
23156;DHT22;11746;50.876;4.246;2023-07-28T03:51:04;18.10;99.90
23156;DHT22;11746;50.876;4.246;2023-07-28T03:53:30;18.00;99.90
23156;DHT22;11746;50.876;4.246;2023-07-28T03:55:56;18.00;99.90
23156;DHT22;11746;50.876;4.246;2023-07-28T03:58:24;18.00;99.90
23156;DHT22;11746;50.876;4.246;2023-07-28T04:00:52;18.00;99.90
23156;DHT22;11746;50.876;4.246;2023-07-28T04:03:19;18.10;99.90
23156;DHT22;11746;50.876;4.246;2023-07-28T04:05:45;18.10;99.90
23156;DHT22;11746;50.876;4.246;2023-07-28T04:08:13;18.20;99.90
23156;DHT22;11746;50.876;4.246;2023-07-28T04:10:39;18.20;99.90
23156;DHT22;11746;50.876;4.246;2023-07-28T04:13:05;18.20;99.90
23156;DHT22;11746;50.876;4.246;2023-07-28T04:15:30;18.20;99.90
23156;DHT22;11746;50.876;4.246;2023-07-28T04:17:56;18.00;99.90
23156;DHT22;11746;50.876;4.246;2023-07-28T04:20:22;18.10;99.90
23156;DHT22;11746;50.876;4.246;2023-07-28T04:22:48;18.10;99.90
23156;DHT22;11746;50.876;4.246;2023-07-28T04:25:14;18.20;99.90
23156;DHT22;11746;50.876;4.246;2023-07-28T04:27:40;18.20;99.90
23156;DHT22;11746;50.876;4.246;2023-07-28T04:30:06;18.20;99.90
23156;DHT22;11746;50.876;4.246;2023-07-28T04:32:32;18.10;99.90
23156;DHT22;11746;50.876;4.246;2023-07-28T04:34:58;18.10;99.90
23156;DHT22;11746;50.876;4.246;2023-07-28T04:37:24;18.10;99.90
23156;DHT22;11746;50.876;4.246;2023-07-28T04:39:50;18.00;99.90
23156;DHT22;11746;50.876;4.246;2023-07-28T04:42:16;18.10;99.90
23156;DHT22;11746;50.876;4.246;2023-07-28T04:44:42;18.10;99.90
23156;DHT22;11746;50.876;4.246;2023-07-28T04:47:08;18.20;99.90
23156;DHT22;11746;50.876;4.246;2023-07-28T04:49:34;18.10;99.90
23156;DHT22;11746;50.876;4.246;2023-07-28T04:52:00;18.10;99.90
23156;DHT22;11746;50.876;4.246;2023-07-28T04:54:25;18.10;99.90
23156;DHT22;11746;50.876;4.246;2023-07-28T04:56:51;18.20;99.90
23156;DHT22;11746;50.876;4.246;2023-07-28T04:59:18;18.20;99.90
23156;DHT22;11746;50.876;4.246;2023-07-28T05:01:44;18.10;99.90
23156;DHT22;11746;50.876;4.246;2023-07-28T05:04:10;18.20;99.90
23156;DHT22;11746;50.876;4.246;2023-07-28T05:06:36;18.20;99.90
23156;DHT22;11746;50.876;4.246;2023-07-28T05:09:02;18.20;99.90
23156;DHT22;11746;50.876;4.246;2023-07-28T05:11:28;18.30;99.90
23156;DHT22;11746;50.876;4.246;2023-07-28T05:13:54;18.20;99.90
23156;DHT22;11746;50.876;4.246;2023-07-28T05:16:20;18.20;99.90
23156;DHT22;11746;50.876;4.246;2023-07-28T05:18:46;18.20;99.90
23156;DHT22;11746;50.876;4.246;2023-07-28T05:21:12;18.30;99.90
23156;DHT22;11746;50.876;4.246;2023-07-28T05:23:40;18.30;99.90
23156;DHT22;11746;50.876;4.246;2023-07-28T05:26:05;18.30;99.90
23156;DHT22;11746;50.876;4.246;2023-07-28T05:28:34;18.20;99.90
23156;DHT22;11746;50.876;4.246;2023-07-28T05:31:05;18.20;99.90
23156;DHT22;11746;50.876;4.246;2023-07-28T05:33:31;18.20;99.90
23156;DHT22;11746;50.876;4.246;2023-07-28T05:36:04;18.20;99.90
23156;DHT22;11746;50.876;4.246;2023-07-28T05:38:30;18.20;99.90
23156;DHT22;11746;50.876;4.246;2023-07-28T05:40:59;18.40;99.90
23156;DHT22;11746;50.876;4.246;2023-07-28T05:43:29;18.40;99.90
23156;DHT22;11746;50.876;4.246;2023-07-28T05:45:59;18.50;99.90
23156;DHT22;11746;50.876;4.246;2023-07-28T05:48:26;18.50;99.90
23156;DHT22;11746;50.876;4.246;2023-07-28T05:50:52;18.50;99.90
23156;DHT22;11746;50.876;4.246;2023-07-28T05:53:20;18.50;99.90
23156;DHT22;11746;50.876;4.246;2023-07-28T05:55:47;18.30;99.90
23156;DHT22;11746;50.876;4.246;2023-07-28T05:58:13;18.30;99.90
23156;DHT22;11746;50.876;4.246;2023-07-28T06:00:39;18.40;99.90
23156;DHT22;11746;50.876;4.246;2023-07-28T06:03:08;18.40;99.90
23156;DHT22;11746;50.876;4.246;2023-07-28T06:05:34;18.40;99.90
23156;DHT22;11746;50.876;4.246;2023-07-28T06:08:00;18.50;99.90
23156;DHT22;11746;50.876;4.246;2023-07-28T06:10:26;18.50;99.90
23156;DHT22;11746;50.876;4.246;2023-07-28T06:12:51;18.50;99.90
23156;DHT22;11746;50.876;4.246;2023-07-28T06:15:17;18.50;99.90
23156;DHT22;11746;50.876;4.246;2023-07-28T06:17:43;18.50;99.90
23156;DHT22;11746;50.876;4.246;2023-07-28T06:20:09;18.60;99.90
23156;DHT22;11746;50.876;4.246;2023-07-28T06:22:35;18.60;99.90
23156;DHT22;11746;50.876;4.246;2023-07-28T06:25:01;18.70;99.90
23156;DHT22;11746;50.876;4.246;2023-07-28T06:27:28;18.80;99.90
23156;DHT22;11746;50.876;4.246;2023-07-28T06:29:54;18.90;99.90
23156;DHT22;11746;50.876;4.246;2023-07-28T06:32:20;18.90;99.90
23156;DHT22;11746;50.876;4.246;2023-07-28T06:34:49;18.90;99.90
23156;DHT22;11746;50.876;4.246;2023-07-28T06:37:15;18.90;99.90
23156;DHT22;11746;50.876;4.246;2023-07-28T06:39:41;18.90;99.90
23156;DHT22;11746;50.876;4.246;2023-07-28T06:42:08;18.90;99.90
23156;DHT22;11746;50.876;4.246;2023-07-28T06:44:34;19.00;99.90
23156;DHT22;11746;50.876;4.246;2023-07-28T06:47:00;19.10;99.90
23156;DHT22;11746;50.876;4.246;2023-07-28T06:49:25;19.00;99.90
23156;DHT22;11746;50.876;4.246;2023-07-28T06:51:51;19.10;99.90
23156;DHT22;11746;50.876;4.246;2023-07-28T06:54:17;19.10;99.90
23156;DHT22;11746;50.876;4.246;2023-07-28T06:56:43;19.10;99.90
23156;DHT22;11746;50.876;4.246;2023-07-28T06:59:09;19.30;99.90
23156;DHT22;11746;50.876;4.246;2023-07-28T07:01:36;19.20;99.90
23156;DHT22;11746;50.876;4.246;2023-07-28T07:04:01;19.30;99.90
23156;DHT22;11746;50.876;4.246;2023-07-28T07:06:27;19.20;99.90
23156;DHT22;11746;50.876;4.246;2023-07-28T07:08:55;19.30;99.90
23156;DHT22;11746;50.876;4.246;2023-07-28T07:11:21;19.50;99.90
23156;DHT22;11746;50.876;4.246;2023-07-28T07:13:47;19.40;99.90
23156;DHT22;11746;50.876;4.246;2023-07-28T07:16:16;19.40;99.90
23156;DHT22;11746;50.876;4.246;2023-07-28T07:18:43;19.40;99.90
23156;DHT22;11746;50.876;4.246;2023-07-28T07:21:09;19.50;99.90
23156;DHT22;11746;50.876;4.246;2023-07-28T07:23:36;19.50;99.90
23156;DHT22;11746;50.876;4.246;2023-07-28T07:26:03;19.50;99.90
23156;DHT22;11746;50.876;4.246;2023-07-28T07:28:28;19.60;99.90
23156;DHT22;11746;50.876;4.246;2023-07-28T07:30:57;19.50;99.90
23156;DHT22;11746;50.876;4.246;2023-07-28T07:33:24;19.70;99.90
23156;DHT22;11746;50.876;4.246;2023-07-28T07:35:50;19.80;99.90
23156;DHT22;11746;50.876;4.246;2023-07-28T07:38:16;19.80;99.90
23156;DHT22;11746;50.876;4.246;2023-07-28T07:40:42;19.80;99.90
23156;DHT22;11746;50.876;4.246;2023-07-28T07:43:07;19.90;99.90
23156;DHT22;11746;50.876;4.246;2023-07-28T07:45:33;19.90;99.90
23156;DHT22;11746;50.876;4.246;2023-07-28T07:47:59;19.80;99.90
23156;DHT22;11746;50.876;4.246;2023-07-28T07:50:25;19.70;99.90
23156;DHT22;11746;50.876;4.246;2023-07-28T07:52:51;19.80;99.90
23156;DHT22;11746;50.876;4.246;2023-07-28T07:55:17;19.90;99.90
23156;DHT22;11746;50.876;4.246;2023-07-28T07:57:43;20.10;99.90
23156;DHT22;11746;50.876;4.246;2023-07-28T08:00:09;20.20;99.90
23156;DHT22;11746;50.876;4.246;2023-07-28T08:02:36;20.40;99.90
23156;DHT22;11746;50.876;4.246;2023-07-28T08:05:02;20.50;99.90
23156;DHT22;11746;50.876;4.246;2023-07-28T08:07:28;20.50;99.90
23156;DHT22;11746;50.876;4.246;2023-07-28T08:09:54;20.40;99.90
23156;DHT22;11746;50.876;4.246;2023-07-28T08:12:20;20.40;99.90
23156;DHT22;11746;50.876;4.246;2023-07-28T08:14:46;20.20;99.90
23156;DHT22;11746;50.876;4.246;2023-07-28T08:17:12;20.30;99.90
23156;DHT22;11746;50.876;4.246;2023-07-28T08:19:38;20.20;99.90
23156;DHT22;11746;50.876;4.246;2023-07-28T08:22:04;20.30;99.90
23156;DHT22;11746;50.876;4.246;2023-07-28T08:24:31;20.20;99.90
23156;DHT22;11746;50.876;4.246;2023-07-28T08:26:57;20.40;99.90
23156;DHT22;11746;50.876;4.246;2023-07-28T08:29:23;20.40;99.90
23156;DHT22;11746;50.876;4.246;2023-07-28T08:31:49;20.30;99.90
23156;DHT22;11746;50.876;4.246;2023-07-28T08:34:15;20.30;99.90
23156;DHT22;11746;50.876;4.246;2023-07-28T08:36:43;20.30;99.90
23156;DHT22;11746;50.876;4.246;2023-07-28T08:39:09;20.30;99.90
23156;DHT22;11746;50.876;4.246;2023-07-28T08:41:35;20.30;99.90
23156;DHT22;11746;50.876;4.246;2023-07-28T08:44:02;20.20;99.90
23156;DHT22;11746;50.876;4.246;2023-07-28T08:46:30;20.30;99.90
23156;DHT22;11746;50.876;4.246;2023-07-28T08:48:59;20.30;99.90
23156;DHT22;11746;50.876;4.246;2023-07-28T08:51:26;20.40;99.90
23156;DHT22;11746;50.876;4.246;2023-07-28T08:53:52;20.20;99.90
23156;DHT22;11746;50.876;4.246;2023-07-28T08:56:20;20.10;99.90
23156;DHT22;11746;50.876;4.246;2023-07-28T08:58:45;19.90;99.90
23156;DHT22;11746;50.876;4.246;2023-07-28T09:01:12;19.80;99.90
23156;DHT22;11746;50.876;4.246;2023-07-28T09:03:40;19.80;99.90
23156;DHT22;11746;50.876;4.246;2023-07-28T09:06:07;19.80;99.90
23156;DHT22;11746;50.876;4.246;2023-07-28T09:08:36;19.70;99.90
23156;DHT22;11746;50.876;4.246;2023-07-28T09:11:04;19.70;99.90
23156;DHT22;11746;50.876;4.246;2023-07-28T09:13:39;19.80;99.90
23156;DHT22;11746;50.876;4.246;2023-07-28T09:16:16;19.90;99.90
23156;DHT22;11746;50.876;4.246;2023-07-28T09:18:43;20.10;99.90
23156;DHT22;11746;50.876;4.246;2023-07-28T09:21:21;20.20;99.90
23156;DHT22;11746;50.876;4.246;2023-07-28T09:23:48;20.40;99.90
23156;DHT22;11746;50.876;4.246;2023-07-28T09:26:17;20.40;99.90
23156;DHT22;11746;50.876;4.246;2023-07-28T09:28:43;20.40;99.90
23156;DHT22;11746;50.876;4.246;2023-07-28T09:31:09;20.40;99.90
23156;DHT22;11746;50.876;4.246;2023-07-28T09:33:37;20.30;99.90
23156;DHT22;11746;50.876;4.246;2023-07-28T09:36:11;20.30;99.90
23156;DHT22;11746;50.876;4.246;2023-07-28T09:38:41;20.30;99.90
23156;DHT22;11746;50.876;4.246;2023-07-28T09:41:09;20.40;99.90
23156;DHT22;11746;50.876;4.246;2023-07-28T09:43:40;20.40;99.90
23156;DHT22;11746;50.876;4.246;2023-07-28T09:46:08;20.50;99.90
23156;DHT22;11746;50.876;4.246;2023-07-28T09:48:34;20.40;99.90
23156;DHT22;11746;50.876;4.246;2023-07-28T09:51:06;20.30;99.90
23156;DHT22;11746;50.876;4.246;2023-07-28T09:53:40;20.20;99.90
23156;DHT22;11746;50.876;4.246;2023-07-28T09:56:08;20.40;99.90
23156;DHT22;11746;50.876;4.246;2023-07-28T09:58:41;20.30;99.90
23156;DHT22;11746;50.876;4.246;2023-07-28T10:01:07;20.20;99.90
23156;DHT22;11746;50.876;4.246;2023-07-28T10:03:37;20.40;99.90
23156;DHT22;11746;50.876;4.246;2023-07-28T10:06:03;20.50;99.90
23156;DHT22;11746;50.876;4.246;2023-07-28T10:08:29;20.40;99.90
23156;DHT22;11746;50.876;4.246;2023-07-28T10:10:56;20.50;99.90
23156;DHT22;11746;50.876;4.246;2023-07-28T10:13:22;20.60;99.90
23156;DHT22;11746;50.876;4.246;2023-07-28T10:15:49;20.70;99.90
23156;DHT22;11746;50.876;4.246;2023-07-28T10:18:15;20.80;99.90
23156;DHT22;11746;50.876;4.246;2023-07-28T10:20:43;20.90;99.90
23156;DHT22;11746;50.876;4.246;2023-07-28T10:23:13;20.90;99.90
23156;DHT22;11746;50.876;4.246;2023-07-28T10:25:40;21.10;99.90
23156;DHT22;11746;50.876;4.246;2023-07-28T10:28:24;21.20;99.90
23156;DHT22;11746;50.876;4.246;2023-07-28T10:30:52;21.10;99.90
23156;DHT22;11746;50.876;4.246;2023-07-28T10:33:38;21.20;99.90
23156;DHT22;11746;50.876;4.246;2023-07-28T10:39:23;21.20;99.90
23156;DHT22;11746;50.876;4.246;2023-07-28T10:42:07;21.20;99.90
23156;DHT22;11746;50.876;4.246;2023-07-28T10:44:34;21.50;99.90
23156;DHT22;11746;50.876;4.246;2023-07-28T10:47:01;21.50;99.90
23156;DHT22;11746;50.876;4.246;2023-07-28T10:49:27;21.50;99.90
23156;DHT22;11746;50.876;4.246;2023-07-28T10:51:54;21.40;99.90
23156;DHT22;11746;50.876;4.246;2023-07-28T10:54:20;21.30;99.90
23156;DHT22;11746;50.876;4.246;2023-07-28T10:56:47;21.50;99.90
23156;DHT22;11746;50.876;4.246;2023-07-28T10:59:14;21.60;99.90
23156;DHT22;11746;50.876;4.246;2023-07-28T11:01:41;21.60;99.90
23156;DHT22;11746;50.876;4.246;2023-07-28T11:06:38;21.60;99.90
23156;DHT22;11746;50.876;4.246;2023-07-28T11:09:06;21.30;99.90
23156;DHT22;11746;50.876;4.246;2023-07-28T11:11:34;21.20;99.90
23156;DHT22;11746;50.876;4.246;2023-07-28T11:14:02;21.30;99.90
23156;DHT22;11746;50.876;4.246;2023-07-28T11:16:29;21.30;99.90
23156;DHT22;11746;50.876;4.246;2023-07-28T11:18:58;21.60;99.90
23156;DHT22;11746;50.876;4.246;2023-07-28T11:21:25;21.80;99.90
23156;DHT22;11746;50.876;4.246;2023-07-28T11:23:51;22.00;99.90
23156;DHT22;11746;50.876;4.246;2023-07-28T11:26:17;22.00;99.90
23156;DHT22;11746;50.876;4.246;2023-07-28T11:28:43;21.90;99.90
23156;DHT22;11746;50.876;4.246;2023-07-28T11:31:09;21.90;99.90
23156;DHT22;11746;50.876;4.246;2023-07-28T11:33:35;22.00;99.90
23156;DHT22;11746;50.876;4.246;2023-07-28T11:36:01;22.00;99.90
23156;DHT22;11746;50.876;4.246;2023-07-28T11:38:28;22.10;99.90
23156;DHT22;11746;50.876;4.246;2023-07-28T11:40:54;22.10;99.90
23156;DHT22;11746;50.876;4.246;2023-07-28T11:43:22;22.10;99.90
23156;DHT22;11746;50.876;4.246;2023-07-28T11:45:49;22.00;99.90
23156;DHT22;11746;50.876;4.246;2023-07-28T11:48:15;22.10;99.90
23156;DHT22;11746;50.876;4.246;2023-07-28T11:50:41;22.20;99.90
23156;DHT22;11746;50.876;4.246;2023-07-28T11:53:09;22.30;99.90
23156;DHT22;11746;50.876;4.246;2023-07-28T11:55:36;22.40;99.90
23156;DHT22;11746;50.876;4.246;2023-07-28T11:58:03;22.50;99.90
23156;DHT22;11746;50.876;4.246;2023-07-28T12:00:34;22.50;99.90
23156;DHT22;11746;50.876;4.246;2023-07-28T12:03:02;22.70;99.90
23156;DHT22;11746;50.876;4.246;2023-07-28T12:05:29;23.00;99.90
23156;DHT22;11746;50.876;4.246;2023-07-28T12:08:00;23.20;99.90
23156;DHT22;11746;50.876;4.246;2023-07-28T12:10:26;23.50;99.90
23156;DHT22;11746;50.876;4.246;2023-07-28T12:12:52;23.90;99.90
23156;DHT22;11746;50.876;4.246;2023-07-28T12:15:28;23.90;99.90
23156;DHT22;11746;50.876;4.246;2023-07-28T12:18:08;24.00;99.90
23156;DHT22;11746;50.876;4.246;2023-07-28T12:20:44;23.80;99.90
23156;DHT22;11746;50.876;4.246;2023-07-28T12:23:15;23.80;99.90
23156;DHT22;11746;50.876;4.246;2023-07-28T12:25:42;23.50;99.90
23156;DHT22;11746;50.876;4.246;2023-07-28T12:28:08;23.30;99.90
23156;DHT22;11746;50.876;4.246;2023-07-28T12:30:35;23.10;99.90
23156;DHT22;11746;50.876;4.246;2023-07-28T12:33:01;23.10;99.90
23156;DHT22;11746;50.876;4.246;2023-07-28T12:35:28;23.00;99.90
23156;DHT22;11746;50.876;4.246;2023-07-28T12:37:58;23.10;99.90
23156;DHT22;11746;50.876;4.246;2023-07-28T12:40:27;23.30;99.90
23156;DHT22;11746;50.876;4.246;2023-07-28T12:42:57;23.40;99.90
23156;DHT22;11746;50.876;4.246;2023-07-28T12:45:23;23.30;99.90
23156;DHT22;11746;50.876;4.246;2023-07-28T12:47:52;23.40;99.90
23156;DHT22;11746;50.876;4.246;2023-07-28T12:50:19;23.40;99.90
23156;DHT22;11746;50.876;4.246;2023-07-28T12:52:46;23.40;99.90
23156;DHT22;11746;50.876;4.246;2023-07-28T12:55:15;23.30;99.90
23156;DHT22;11746;50.876;4.246;2023-07-28T12:57:41;23.30;99.90
23156;DHT22;11746;50.876;4.246;2023-07-28T13:00:08;23.30;99.90
23156;DHT22;11746;50.876;4.246;2023-07-28T13:02:42;23.60;99.90
23156;DHT22;11746;50.876;4.246;2023-07-28T13:05:09;23.60;99.90
23156;DHT22;11746;50.876;4.246;2023-07-28T13:07:39;23.70;99.90
23156;DHT22;11746;50.876;4.246;2023-07-28T13:10:07;23.80;99.90
23156;DHT22;11746;50.876;4.246;2023-07-28T13:12:35;24.00;99.90
23156;DHT22;11746;50.876;4.246;2023-07-28T13:15:01;23.90;99.90
23156;DHT22;11746;50.876;4.246;2023-07-28T13:17:27;23.90;99.90
23156;DHT22;11746;50.876;4.246;2023-07-28T13:19:53;23.90;99.90
23156;DHT22;11746;50.876;4.246;2023-07-28T13:22:19;23.70;99.90
23156;DHT22;11746;50.876;4.246;2023-07-28T13:24:45;23.80;99.90
23156;DHT22;11746;50.876;4.246;2023-07-28T13:27:11;23.90;99.90
23156;DHT22;11746;50.876;4.246;2023-07-28T13:29:37;24.00;99.90
23156;DHT22;11746;50.876;4.246;2023-07-28T13:32:03;24.40;99.90
23156;DHT22;11746;50.876;4.246;2023-07-28T13:34:29;24.70;99.90
23156;DHT22;11746;50.876;4.246;2023-07-28T13:36:56;24.60;99.90
23156;DHT22;11746;50.876;4.246;2023-07-28T13:39:23;24.50;99.90
23156;DHT22;11746;50.876;4.246;2023-07-28T13:41:49;24.20;99.90
23156;DHT22;11746;50.876;4.246;2023-07-28T13:44:15;24.20;99.90
23156;DHT22;11746;50.876;4.246;2023-07-28T13:46:41;24.20;99.90
23156;DHT22;11746;50.876;4.246;2023-07-28T13:49:07;24.10;99.90
23156;DHT22;11746;50.876;4.246;2023-07-28T13:51:33;24.10;99.90
23156;DHT22;11746;50.876;4.246;2023-07-28T13:53:59;24.00;99.90
23156;DHT22;11746;50.876;4.246;2023-07-28T13:56:25;23.90;99.90
23156;DHT22;11746;50.876;4.246;2023-07-28T13:58:51;23.80;99.90
23156;DHT22;11746;50.876;4.246;2023-07-28T14:01:17;23.90;99.90
23156;DHT22;11746;50.876;4.246;2023-07-28T14:03:43;23.80;99.90
23156;DHT22;11746;50.876;4.246;2023-07-28T14:06:09;23.60;99.90
23156;DHT22;11746;50.876;4.246;2023-07-28T14:08:35;23.40;99.90
23156;DHT22;11746;50.876;4.246;2023-07-28T14:11:01;23.40;99.90
23156;DHT22;11746;50.876;4.246;2023-07-28T14:13:27;23.50;99.90
23156;DHT22;11746;50.876;4.246;2023-07-28T14:15:53;23.70;99.90
23156;DHT22;11746;50.876;4.246;2023-07-28T14:18:19;23.50;99.90
23156;DHT22;11746;50.876;4.246;2023-07-28T14:20:45;23.60;99.90
23156;DHT22;11746;50.876;4.246;2023-07-28T14:23:27;23.80;99.90
23156;DHT22;11746;50.876;4.246;2023-07-28T14:25:54;24.00;99.90
23156;DHT22;11746;50.876;4.246;2023-07-28T14:28:21;24.40;99.90
23156;DHT22;11746;50.876;4.246;2023-07-28T14:30:47;24.80;99.90
23156;DHT22;11746;50.876;4.246;2023-07-28T14:33:15;24.70;99.90
23156;DHT22;11746;50.876;4.246;2023-07-28T14:35:43;24.40;99.90
23156;DHT22;11746;50.876;4.246;2023-07-28T14:38:09;24.40;99.90
23156;DHT22;11746;50.876;4.246;2023-07-28T14:40:36;24.60;99.90
23156;DHT22;11746;50.876;4.246;2023-07-28T14:43:06;24.90;99.90
23156;DHT22;11746;50.876;4.246;2023-07-28T14:45:32;24.90;99.90
23156;DHT22;11746;50.876;4.246;2023-07-28T14:47:58;25.60;99.90
23156;DHT22;11746;50.876;4.246;2023-07-28T14:50:24;26.10;99.90
23156;DHT22;11746;50.876;4.246;2023-07-28T14:52:50;26.50;99.90
23156;DHT22;11746;50.876;4.246;2023-07-28T14:55:16;26.70;99.90
23156;DHT22;11746;50.876;4.246;2023-07-28T14:57:41;26.90;99.90
23156;DHT22;11746;50.876;4.246;2023-07-28T15:00:08;27.10;99.90
23156;DHT22;11746;50.876;4.246;2023-07-28T15:02:35;26.90;99.90
23156;DHT22;11746;50.876;4.246;2023-07-28T15:05:04;26.70;99.90
23156;DHT22;11746;50.876;4.246;2023-07-28T15:07:30;26.90;99.90
23156;DHT22;11746;50.876;4.246;2023-07-28T15:09:56;27.30;99.90
23156;DHT22;11746;50.876;4.246;2023-07-28T15:12:22;27.50;99.90
23156;DHT22;11746;50.876;4.246;2023-07-28T15:14:48;27.50;99.90
23156;DHT22;11746;50.876;4.246;2023-07-28T15:17:14;27.70;99.90
23156;DHT22;11746;50.876;4.246;2023-07-28T15:19:40;27.70;99.90
23156;DHT22;11746;50.876;4.246;2023-07-28T15:22:05;27.60;99.90
23156;DHT22;11746;50.876;4.246;2023-07-28T15:24:31;28.20;99.90
23156;DHT22;11746;50.876;4.246;2023-07-28T15:26:57;28.20;99.90
23156;DHT22;11746;50.876;4.246;2023-07-28T15:29:23;28.20;99.90
23156;DHT22;11746;50.876;4.246;2023-07-28T15:31:49;28.10;99.90
23156;DHT22;11746;50.876;4.246;2023-07-28T15:34:16;27.70;99.90
23156;DHT22;11746;50.876;4.246;2023-07-28T15:36:42;27.10;99.90
23156;DHT22;11746;50.876;4.246;2023-07-28T15:39:08;27.30;99.90
23156;DHT22;11746;50.876;4.246;2023-07-28T15:41:34;27.20;99.90